Montebello, Canada
Current Conditions -  °F | °C
As of 7:00 PM on Monday 20 Oct 2014 (Local Time) from CYND Reporting Station
Overcast Overcast  
Wind Chill: 35°   Ceiling: 1800
Heat Index: 39°   Visibility: 15mi
Dew Point: 36°   Wind: 6mph
Humidity: 87%   Direction: 60°ENE
Pressure: 29.91"   Gusts: NA
Location:  45.65°N, 74.93°W
Report Text: CYND 202300Z 06005KT 15SM OVC018 04/02 A2991 RMK SC8 SLP132
Loading
Personal Weather Stations






























Interactive Weather Map
Tropical Storm Tracking
New forecast layout! Learn more

10-Day Weather Forecast

Advertisements
Track Severe Weather on mobile